Time;durP1;ratioP1;P1;durP2;ratioP2;P2;SDS_P1;SDS_P2;PMS_P1;PMS_P2;Temp;Humidity;BMP_temperature;BMP_pressure;BME280_temperature;BME280_humidity;BME280_pressure;Samples;Min_cycle;Max_cycle;Signal;HPM_P1;HPM_P2
2023/07/20 00:01:23;;;;;;;4.00;1.90;;;28.80;99.90;;;;;;5043771;28;20581;-56
2023/07/20 00:03:54;;;;;;;2.03;1.80;;;28.90;99.90;;;;;;5044016;28;20372;-48
2023/07/20 00:06:27;;;;;;;3.15;1.50;;;28.90;99.90;;;;;;5043983;28;20216;-47
2023/07/20 00:08:58;;;;;;;2.17;1.70;;;28.90;99.90;;;;;;5043966;28;20092;-54
2023/07/20 00:11:26;;;;;;;2.72;1.58;;;;;;;;;;5043656;28;20029;-57
2023/07/20 00:13:53;;;;;;;2.70;1.75;;;;;;;;;;5026131;28;20216;-56
2023/07/20 00:16:23;;;;;;;2.58;1.58;;;;;;;;;;5043901;28;20066;-54
2023/07/20 00:18:50;;;;;;;1.80;1.50;;;;;;;;;;5043345;28;20329;-56
2023/07/20 00:21:19;;;;;;;4.28;2.20;;;;;;;;;;5043935;28;20029;-52
2023/07/20 00:23:46;;;;;;;2.95;1.52;;;;;;;;;;5043972;28;20017;-54
2023/07/20 00:26:13;;;;;;;2.80;1.92;;;;;;;;;;5043045;28;20393;-52
2023/07/20 00:28:40;;;;;;;3.88;1.73;;;;;;;;;;5043392;28;20310;-50
2023/07/20 00:31:36;;;;;;;3.00;1.55;;;;;;;;;;5043591;28;20041;-53
2023/07/20 00:34:04;;;;;;;3.08;1.60;;;;;;;;;;5043553;28;20029;-55
2023/07/20 00:36:33;;;;;;;2.22;1.90;;;;;;;;;;5043854;28;20025;-52
2023/07/20 00:38:59;;;;;;;2.35;1.60;;;;;;;;;;5043184;28;20279;-51
2023/07/20 00:42:11;;;;;;;2.22;1.55;;;28.90;99.90;;;;;;5043386;28;20013;-58
2023/07/20 00:44:58;;;;;;;2.67;1.75;;;;;;;;;;5051019;28;20048;-56
2023/07/20 00:47:43;;;;;;;2.70;1.80;;;;;;;;;;5043138;28;20017;-46
2023/07/20 00:50:13;;;;;;;3.60;1.35;;;;;;;;;;5028026;28;20566;-58
2023/07/20 00:53:20;;;;;;;;;;;;;;;;;;;;;
2023/07/20 00:55:58;;;;;;;3.38;1.20;;;;;;;;;;5043516;28;20045;-42
2023/07/20 00:58:28;;;;;;;2.83;1.17;;;;;;;;;;5008698;28;20061;-47
2023/07/20 01:01:00;;;;;;;3.22;1.33;;;;;;;;;;5043110;28;20037;-53
2023/07/20 01:03:48;;;;;;;1.83;0.90;;;;;;;;;;5042266;28;20070;-49
2023/07/20 01:06:35;;;;;;;2.53;1.10;;;;;;;;;;5031721;28;20093;-47
2023/07/20 01:09:05;;;;;;;3.40;1.35;;;;;;;;;;5043133;28;20080;-45
2023/07/20 01:11:53;;;;;;;2.33;1.40;;;;;;;;;;5050909;28;20029;-52
2023/07/20 01:14:21;;;;;;;4.70;1.38;;;;;;;;;;5043046;28;20025;-52
2023/07/20 01:16:49;;;;;;;2.40;1.10;;;;;;;;;;5052921;28;20039;-47
2023/07/20 01:19:24;;;;;;;1.23;0.98;;;;;;;;;;5060465;28;20194;-49
2023/07/20 01:21:58;;;;;;;4.28;1.30;;;;;;;;;;5051551;28;20040;-49
2023/07/20 01:24:28;;;;;;;2.75;1.35;;;;;;;;;;5043456;28;20344;-62
2023/07/20 01:27:01;;;;;;;2.85;1.30;;;;;;;;;;5042688;28;20097;-48
2023/07/20 01:29:50;;;;;;;4.18;1.30;;;;;;;;;;5042661;28;20057;-44
2023/07/20 01:32:25;;;;;;;3.72;1.45;;;;;;;;;;5042752;28;20037;-48
2023/07/20 01:35:04;;;;;;;5.05;1.50;;;;;;;;;;5041948;28;20041;-45
2023/07/20 01:37:58;;;;;;;4.35;1.40;;;;;;;;;;5056597;28;20052;-47
2023/07/20 01:40:35;;;;;;;5.18;1.38;;;;;;;;;;5063677;28;20025;-48
2023/07/20 01:43:24;;;;;;;6.15;1.90;;;;;;;;;;5040056;28;20067;-49
2023/07/20 01:46:15;;;;;;;8.05;2.08;;;;;;;;;;5047871;28;20017;-55
2023/07/20 01:48:46;;;;;;;12.40;2.63;;;;;;;;;;5056522;28;20032;-57
2023/07/20 01:51:25;;;;;;;10.02;2.85;;;;;;;;;;5055989;27;20033;-46
2023/07/20 01:54:23;;;;;;;;;;;;;;;;;;;;;
2023/07/20 01:56:50;;;;;;;12.32;2.80;;;;;;;;;;5042471;28;20045;-53
2023/07/20 02:02:54;;;;;;;9.35;2.30;;;;;;;;;;5037416;28;20029;-47
2023/07/20 02:05:26;;;;;;;6.40;2.00;;;;;;;;;;5042813;28;20040;-55
2023/07/20 02:08:01;;;;;;;5.75;1.50;;;;;;;;;;5045527;28;20306;-55
2023/07/20 02:10:40;;;;;;;7.00;1.33;;;;;;;;;;5050699;28;20040;-49
2023/07/20 02:13:06;;;;;;;4.57;1.40;;;;;;;;;;5041868;28;20021;-56
2023/07/20 02:15:33;;;;;;;6.93;1.88;;;;;;;;;;5034079;28;20039;-45
2023/07/20 02:18:11;;;;;;;6.05;1.40;;;;;;;;;;5043535;28;20060;-48
2023/07/20 02:20:38;;;;;;;5.78;1.35;;;;;;;;;;5046996;28;20025;-51
2023/07/20 02:23:07;;;;;;;2.22;0.90;;;;;;;;;;5042304;28;20032;-45
2023/07/20 02:25:33;;;;;;;5.45;1.00;;;;;;;;;;5022339;28;20324;-43
2023/07/20 02:28:02;;;;;;;6.93;1.67;;;;;;;;;;5042058;28;20018;-44
2023/07/20 02:30:28;;;;;;;7.30;2.13;;;;;;;;;;5040930;28;20068;-56
2023/07/20 02:32:58;;;;;;;5.53;1.40;;;;;;;;;;5050106;28;20029;-48
2023/07/20 02:35:27;;;;;;;3.70;1.30;;;;;;;;;;5062068;28;20044;-47
2023/07/20 02:37:57;;;;;;;2.60;1.20;;;;;;;;;;5061917;28;20059;-53
2023/07/20 02:40:23;;;;;;;1.77;0.80;;;;;;;;;;5063274;28;20074;-46
2023/07/20 02:42:53;;;;;;;2.95;0.90;;;;;;;;;;5055162;28;20028;-49
2023/07/20 02:45:20;;;;;;;2.67;0.80;;;;;;;;;;5047974;28;20057;-58
2023/07/20 02:47:46;;;;;;;2.10;0.93;;;;;;;;;;5056167;28;20070;-46
2023/07/20 02:50:16;;;;;;;1.50;0.77;;;;;;;;;;5048675;28;20032;-45
2023/07/20 02:52:43;;;;;;;1.65;0.80;;;;;;;;;;5059792;28;20028;-44
2023/07/20 02:55:10;;;;;;;2.17;1.00;;;;;;;;;;5060910;28;20021;-51
2023/07/20 02:57:38;;;;;;;3.33;1.00;;;;;;;;;;5049851;28;20036;-45
2023/07/20 03:00:19;;;;;;;5.22;1.00;;;;;;;;;;5022831;28;20082;-49
2023/07/20 03:02:52;;;;;;;20.95;2.10;;;;;;;;;;5044922;28;20085;-51
2023/07/20 03:05:19;;;;;;;31.90;2.85;;;;;;;;;;5056527;28;20029;-52
2023/07/20 03:07:47;;;;;;;33.13;2.65;;;;;;;;;;5052250;28;20054;-50
2023/07/20 03:10:20;;;;;;;19.48;1.90;;;;;;;;;;5024940;28;20037;-49
2023/07/20 03:12:48;;;;;;;6.78;1.00;;;;;;;;;;5042232;28;20027;-49
2023/07/20 03:15:15;;;;;;;4.97;0.93;;;;;;;;;;5046116;28;20097;-47
2023/07/20 03:17:41;;;;;;;13.95;1.65;;;;;;;;;;5045562;28;20288;-52
2023/07/20 03:20:12;;;;;;;29.63;2.90;;;;;;;;;;5044319;28;20040;-51
2023/07/20 03:22:46;;;;;;;31.40;3.58;;;;;;;;;;5061604;28;20029;-61
2023/07/20 03:25:15;;;;;;;63.78;5.40;;;;;;;;;;5050159;28;20361;-42
2023/07/20 03:28:18;;;;;;;59.35;4.88;;;;;;;;;;5055934;28;20028;-46
2023/07/20 03:30:45;;;;;;;24.20;2.72;;;;;;;;;;5045219;28;20425;-45
2023/07/20 03:33:12;;;;;;;19.60;2.63;;;;;;;;;;5043916;28;20097;-47
2023/07/20 03:35:38;;;;;;;18.20;11.30;;;;;;;;;;5043926;28;20067;-47
2023/07/20 03:38:05;;;;;;;24.40;10.35;;;;;;;;;;5056685;28;20104;-48
2023/07/20 03:40:32;;;;;;;21.42;9.85;;;;;;;;;;5054989;28;20034;-49
2023/07/20 03:42:58;;;;;;;42.40;10.13;;;;;;;;;;5050728;28;20019;-45
2023/07/20 03:45:25;;;;;;;30.02;6.97;;;;;;;;;;5063790;28;20098;-51
2023/07/20 03:48:15;;;;;;;19.63;4.72;;;;;;;;;;5045892;28;20100;-45
2023/07/20 03:50:51;;;;;;;25.95;4.07;;;;;;;;;;5039054;28;20038;-49
2023/07/20 03:53:18;;;;;;;34.35;4.97;;;;;;;;;;5052807;28;20040;-48
2023/07/20 03:55:49;;;;;;;53.55;6.40;;;;;;;;;;5047046;28;20033;-44
2023/07/20 03:58:16;;;;;;;39.95;5.78;;;;;;;;;;5048336;28;20107;-52
2023/07/20 04:00:46;;;;;;;45.40;4.82;;;;;;;;;;5055718;28;20037;-47
2023/07/20 04:03:15;;;;;;;24.42;3.55;;;;;;;;;;5044056;28;20057;-50
2023/07/20 04:06:17;;;;;;;23.75;2.90;;;;;;;;;;5044819;28;20275;-47
2023/07/20 04:09:07;;;;;;;12.77;2.25;;;;;;;;;;5043914;28;20029;-50
2023/07/20 04:11:43;;;;;;;18.23;2.17;;;;;;;;;;5051962;28;20246;-48
2023/07/20 04:14:44;;;;;;;8.68;2.70;;;;;;;;;;5044019;28;20044;-50
2023/07/20 04:17:14;;;;;;;9.90;2.10;;;;;;;;;;5043896;28;20096;-53
2023/07/20 04:20:06;;;;;;;9.43;2.00;;;;;;;;;;5043683;28;20314;-48
2023/07/20 04:22:55;;;;;;;11.25;1.80;;;;;;;;;;5055353;28;20044;-51
2023/07/20 04:31:39;;;;;;;7.65;1.95;;;;;;;;;;5025256;28;20040;-50
2023/07/20 04:34:09;;;;;;;7.85;1.50;;;;;;;;;;5054755;28;20032;-52
2023/07/20 04:36:35;;;;;;;4.20;1.38;;;;;;;;;;5063486;28;20021;-54
2023/07/20 04:39:08;;;;;;;2.90;1.17;;;;;;;;;;5062424;28;20067;-53
2023/07/20 04:41:37;;;;;;;4.28;1.30;;;;;;;;;;5063174;28;20025;-49
2023/07/20 04:44:04;;;;;;;5.97;1.33;;;;;;;;;;5048617;28;20084;-51
2023/07/20 04:46:37;;;;;;;6.15;1.13;;;;;;;;;;5025921;28;20065;-55
2023/07/20 04:49:04;;;;;;;5.05;1.13;;;;;;;;;;5043919;28;20089;-50
2023/07/20 04:51:31;;;;;;;3.95;1.13;;;;;;;;;;5043327;28;20033;-57
2023/07/20 04:53:58;;;;;;;5.93;1.10;;;;;;;;;;5051813;28;20032;-50
2023/07/20 04:56:25;;;;;;;7.82;1.33;;;;;;;;;;5055374;28;20231;-51
2023/07/20 04:58:52;;;;;;;8.02;2.70;;;;;;;;;;5062927;28;20037;-55
2023/07/20 05:01:18;;;;;;;3.67;1.35;;;;;;;;;;5064022;28;20021;-48
2023/07/20 05:03:45;;;;;;;5.15;1.42;;;;;;;;;;5063185;28;20029;-45
2023/07/20 05:06:12;;;;;;;3.95;1.27;;;;;;;;;;5063090;28;20044;-53
2023/07/20 05:08:42;;;;;;;4.13;1.30;;;;;;;;;;5063033;28;20029;-52
2023/07/20 05:11:08;;;;;;;5.22;1.10;;;;;;;;;;5063193;28;20028;-56
2023/07/20 05:13:35;;;;;;;1.70;0.70;;;;;;;;;;5062673;28;20052;-44
2023/07/20 05:16:01;;;;;;;4.43;1.10;;;;;;;;;;5062926;28;20021;-45
2023/07/20 05:18:28;;;;;;;4.93;1.05;;;;;;;;;;5062641;28;20033;-48
2023/07/20 05:20:55;;;;;;;3.05;0.98;;;;;;;;;;5062415;28;20076;-46
2023/07/20 05:23:22;;;;;;;2.92;1.00;;;;;;;;;;5062711;28;20025;-50
2023/07/20 05:25:55;;;;;;;3.42;1.10;;;;;;;;;;5062782;28;20048;-48
2023/07/20 05:28:21;;;;;;;2.10;1.17;;;;;;;;;;5062418;28;20037;-45
2023/07/20 05:30:48;;;;;;;5.55;1.30;;;;;;;;;;5062561;28;20033;-48
2023/07/20 05:33:15;;;;;;;3.30;1.17;;;;;;;;;;5062486;28;20033;-45
2023/07/20 05:35:42;;;;;;;4.88;1.05;;;;;;;;;;5062431;28;20092;-48
2023/07/20 05:38:08;;;;;;;3.95;1.30;;;;;;;;;;5062294;28;20093;-47
2023/07/20 05:40:38;;;;;;;2.88;1.25;;;;;;;;;;5062254;28;20025;-48
2023/07/20 05:43:04;;;;;;;5.43;1.33;;;;;;;;;;5062157;28;20028;-57
2023/07/20 05:45:31;;;;;;;3.95;1.40;;;;;;;;;;5062351;28;20021;-56
2023/07/20 05:47:57;;;;;;;3.05;1.08;;;;;;;;;;5062170;28;20025;-50
2023/07/20 05:50:24;;;;;;;4.90;1.17;;;;;;;;;;5061968;28;20342;-51
2023/07/20 05:52:53;;;;;;;3.08;1.10;;;;;;;;;;5062018;28;20064;-48
2023/07/20 05:55:20;;;;;;;5.80;1.30;;;;;;;;;;5061880;28;20025;-50
2023/07/20 05:57:47;;;;;;;4.43;1.33;;;;;;;;;;5061784;28;20072;-50
2023/07/20 06:00:14;;;;;;;5.03;1.48;;;;;;;;;;5062062;28;20021;-51
2023/07/20 06:02:41;;;;;;;4.63;1.23;;;;;;;;;;5061860;28;20089;-54
2023/07/20 06:05:12;;;;;;;3.10;1.00;;;;;;;;;;5062110;28;20028;-50
2023/07/20 06:07:38;;;;;;;6.45;1.52;;;;;;;;;;5061955;28;20029;-53
2023/07/20 06:10:07;;;;;;;4.72;1.20;;;;;;;;;;5062047;28;20046;-50
2023/07/20 06:12:33;;;;;;;3.30;1.10;;;;;;;;;;5061565;28;20031;-49
2023/07/20 06:15:04;;;;;;;6.22;1.20;;;;;;;;;;5061769;28;20032;-51
2023/07/20 06:17:30;;;;;;;3.83;1.35;;;;;;;;;;5061695;28;20221;-44
2023/07/20 06:19:57;;;;;;;2.38;1.20;;;;;;;;;;5061439;28;20028;-46
2023/07/20 06:22:24;;;;;;;3.35;1.10;;;;;;;;;;5060450;28;20220;-52
2023/07/20 06:24:51;;;;;;;5.80;1.30;;;;;;;;;;5052565;28;20085;-48
2023/07/20 06:27:17;;;;;;;5.55;1.30;;;;;;;;;;5041544;28;20034;-45
2023/07/20 06:29:44;;;;;;;5.30;1.50;;;;;;;;;;5041738;28;20133;-49
2023/07/20 06:32:11;;;;;;;3.25;1.10;;;;;;;;;;5041488;28;20045;-59
2023/07/20 06:34:38;;;;;;;8.75;1.42;;;;;;;;;;5041437;28;20034;-53
2023/07/20 06:37:05;;;;;;;3.17;1.20;;;;;;;;;;5042017;28;20033;-44
2023/07/20 06:39:32;;;;;;;2.53;1.35;;;;;;;;;;5041428;28;20060;-48
2023/07/20 06:41:58;;;;;;;4.55;1.20;;;;;;;;;;5041264;28;20075;-51
2023/07/20 06:44:25;;;;;;;3.55;1.10;;;;;;;;;;5041723;28;20048;-53
2023/07/20 06:46:51;;;;;;;2.38;1.00;;;;;;;;;;5041857;28;20201;-50
2023/07/20 06:49:27;;;;;;;4.03;1.08;;;;;;;;;;5041263;28;20052;-56
2023/07/20 06:51:54;;;;;;;2.35;1.10;;;;;;;;;;5041741;28;20021;-51
2023/07/20 06:54:21;;;;;;;4.88;1.08;;;;;;;;;;5041343;28;20045;-45
2023/07/20 06:56:47;;;;;;;3.40;1.00;;;;;;;;;;5041576;28;20037;-45
2023/07/20 06:59:14;;;;;;;3.17;0.90;;;;;;;;;;5041053;28;20037;-46
2023/07/20 07:01:41;;;;;;;3.65;0.90;;;;;;;;;;5040853;28;20037;-54
2023/07/20 07:04:07;;;;;;;2.72;0.88;;;;;;;;;;5041266;28;20074;-45
2023/07/20 07:06:35;;;;;;;3.28;0.80;;;;;;;;;;5061278;28;20254;-46
2023/07/20 07:09:02;;;;;;;4.20;1.08;;;;;;;;;;5061088;28;20041;-45
2023/07/20 07:11:28;;;;;;;4.30;1.00;;;;;;;;;;5061200;28;20021;-49
2023/07/20 07:13:55;;;;;;;5.85;1.25;;;;;;;;;;5060984;28;20040;-45
2023/07/20 07:16:21;;;;;;;8.20;1.30;;;;;;;;;;5061240;28;20037;-52
2023/07/20 07:18:48;;;;;;;4.90;1.10;;;;;;;;;;5060864;28;20033;-51
2023/07/20 07:21:15;;;;;;;4.97;1.10;;;;;;;;;;5060993;28;20049;-54
2023/07/20 07:23:41;;;;;;;1.83;0.80;;;;;;;;;;5060861;28;20041;-57
2023/07/20 07:26:08;;;;;;;3.80;1.13;;;;;;;;;;5060600;28;20029;-58
2023/07/20 07:28:35;;;;;;;4.13;1.00;;;;;;;;;;5060806;28;20041;-47
2023/07/20 07:31:01;;;;;;;5.82;1.17;;;;;;;;;;5060759;28;20035;-54
2023/07/20 07:33:28;;;;;;;3.05;1.00;;;;;;;;;;5060478;28;20033;-54
2023/07/20 07:35:55;;;;;;;3.35;1.00;;;;;;;;;;5060938;28;20332;-57
2023/07/20 07:38:21;;;;;;;4.85;1.20;;;;;;;;;;5060615;28;20060;-59
2023/07/20 07:40:48;;;;;;;5.10;1.00;;;;;;;;;;5060785;28;20024;-51
2023/07/20 07:43:14;;;;;;;4.60;1.00;;;;;;;;;;5060829;28;20240;-55
2023/07/20 07:45:42;;;;;;;5.72;1.23;;;;;;;;;;5060724;28;20036;-48
2023/07/20 07:48:11;;;;;;;5.22;1.08;;;;;;;;;;5060853;28;20261;-45
2023/07/20 07:50:38;;;;;;;2.20;1.15;;;;;;;;;;5053044;28;20389;-46
2023/07/20 07:53:04;;;;;;;4.38;1.38;;;;;;;;;;5047942;28;20325;-49
2023/07/20 07:55:31;;;;;;;2.55;1.08;;;;;;;;;;5041827;28;20121;-52
2023/07/20 07:57:58;;;;;;;2.50;1.08;;;;;;;;;;5049100;28;20109;-45
2023/07/20 08:00:24;;;;;;;4.45;1.20;;;;;;;;;;5040591;28;20029;-62
2023/07/20 08:02:51;;;;;;;1.88;1.10;;;;;;;;;;5040450;28;20089;-52
2023/07/20 08:05:18;;;;;;;2.75;1.33;;;;;;;;;;5040356;28;20022;-50
2023/07/20 08:07:45;;;;;;;4.65;1.02;;;;;;;;;;5040381;28;20275;-50
2023/07/20 08:10:12;;;;;;;4.43;1.13;;;;;;;;;;5040375;28;20036;-44
2023/07/20 08:12:38;;;;;;;6.75;1.02;;;;;;;;;;5041423;28;20089;-47
2023/07/20 08:15:05;;;;;;;4.72;1.20;;;;;;;;;;5044077;28;20229;-58
2023/07/20 08:17:32;;;;;;;3.15;0.98;;;;;;;;;;5043633;28;20329;-55
2023/07/20 08:19:59;;;;;;;3.42;1.38;;;;;;;;;;5043467;28;20037;-50
2023/07/20 08:22:25;;;;;;;3.30;1.25;;;;;;;;;;5043604;28;20033;-48
2023/07/20 08:24:53;;;;;;;2.05;1.23;;;;;;;;;;5043571;28;20028;-48
2023/07/20 08:27:20;;;;;;;3.20;1.42;;;;;;;;;;5043422;28;20021;-52
2023/07/20 08:29:46;;;;;;;6.68;1.25;;;;;;;;;;5043424;28;20038;-48
2023/07/20 08:32:14;;;;;;;3.20;1.00;;;;;;;;;;5043313;28;20053;-51
2023/07/20 08:34:42;;;;;;;4.03;1.25;;;;;;;;;;5043543;28;20037;-52
2023/07/20 08:37:10;;;;;;;3.45;1.15;;;;;;;;;;5043861;28;20041;-50
2023/07/20 08:39:36;;;;;;;5.13;1.17;;;;;;;;;;5043266;28;20369;-47
2023/07/20 08:42:05;;;;;;;3.67;1.20;;;;;;;;;;5043122;28;20053;-50
2023/07/20 08:44:48;;;;;;;2.92;1.30;;;;;;;;;;5043442;28;20067;-51
2023/07/20 08:47:14;;;;;;;;;;;;;;;;;;5043678;28;20030;-51
2023/07/20 08:49:42;;;;;;;4.38;1.40;;;;;;;;;;5043341;28;19912;-49
2023/07/20 08:52:09;;;;;;;3.08;1.25;;;;;;;;;;5043775;28;20093;-50
2023/07/20 08:54:36;;;;;;;4.70;1.40;;;;;;;;;;5043139;28;20048;-54
2023/07/20 08:57:03;;;;;;;2.63;1.30;;;;;;;;;;5043557;28;20033;-50
2023/07/20 08:59:30;;;;;;;1.92;1.10;;;;;;;;;;5043135;28;20037;-52
2023/07/20 09:02:06;;;;;;;3.15;1.10;;;;;;;;;;5043356;28;20171;-52
2023/07/20 09:04:33;;;;;;;8.23;1.20;;;;;;;;;;5043149;28;20037;-47
2023/07/20 09:07:00;;;;;;;3.35;1.40;;;;;;;;;;5043540;28;20317;-51
2023/07/20 09:09:27;;;;;;;4.50;1.50;;;;;;;;;;5042768;28;20107;-48
2023/07/20 09:11:53;;;;;;;3.17;1.42;;;;;;;;;;5049653;28;20068;-50
2023/07/20 09:14:20;;;;;;;7.28;1.73;;;;;;;;;;5045666;28;20040;-44
2023/07/20 09:16:51;;;;;;;3.55;1.10;;;;;;;;;;5041987;28;20067;-54
2023/07/20 09:19:18;;;;;;;5.18;1.48;;;;;;;;;;5054102;28;20021;-47
2023/07/20 09:21:49;;;;;;;7.97;1.80;;;;;;;;;;5050616;28;20040;-44
2023/07/20 09:24:16;;;;;;;2.85;1.13;;;;;;;;;;5043722;28;20029;-49
2023/07/20 09:26:43;;;;;;;3.45;1.20;;;;;;;;;;5043079;28;20040;-47
2023/07/20 09:29:11;;;;;;;5.57;1.52;;;;;;;;;;5047504;28;20175;-49
2023/07/20 09:31:37;;;;;;;3.35;1.30;;;;;;;;;;5047560;28;20038;-57
2023/07/20 09:34:05;;;;;;;7.22;1.33;;;;;;;;;;5054777;28;20037;-50
2023/07/20 09:36:34;;;;;;;5.32;1.38;;;;;;;;;;5054391;28;20357;-53
2023/07/20 09:39:01;;;;;;;4.20;1.20;;;;;;;;;;5047299;28;20036;-52
2023/07/20 09:41:28;;;;;;;4.63;1.25;;;;;;;;;;5049108;28;20268;-44
2023/07/20 09:43:55;;;;;;;5.82;1.45;;;;;;;;;;5047560;28;20048;-51
2023/07/20 09:46:22;;;;;;;5.05;1.40;;;;;;;;;;5053442;28;20355;-46
2023/07/20 09:48:54;;;;;;;3.53;1.30;;;;;;;;;;5034789;28;20033;-53
2023/07/20 09:51:24;;;;;;;4.47;1.20;;;;;;;;;;5035543;28;20078;-49
2023/07/20 09:53:55;;;;;;;5.97;1.27;;;;;;;;;;5045538;28;20036;-49
2023/07/20 09:56:23;;;;;;;8.45;1.58;;;;;;;;;;5050899;28;20067;-44
2023/07/20 09:58:50;;;;;;;5.95;1.48;;;;;;;;;;5044422;28;20306;-57
2023/07/20 10:01:19;;;;;;;3.88;1.45;;;;;;;;;;5051127;28;20029;-48
2023/07/20 10:03:47;;;;;;;3.42;1.50;;;;;;;;;;5048724;28;20037;-47
2023/07/20 10:06:16;;;;;;;3.67;1.45;;;;;;;;;;5046686;28;20027;-47
2023/07/20 10:08:43;;;;;;;3.42;1.40;;;;;;;;;;5042004;28;20037;-47
2023/07/20 10:11:12;;;;;;;3.50;1.50;;;;;;;;;;5042154;28;20044;-48
2023/07/20 10:13:39;;;;;;;6.05;1.60;;;;;;;;;;5041974;28;20066;-48
2023/07/20 10:16:15;;;;;;;4.40;1.58;;;;;;;;;;5042004;28;20037;-46
2023/07/20 10:18:52;;;;;;;5.05;1.63;;;;;;;;;;5044396;28;20060;-53
2023/07/20 10:21:22;;;;;;;3.78;1.50;;;28.00;99.90;;;;;;5050867;28;20030;-48
2023/07/20 10:23:49;;;;;;;4.70;1.55;;;28.00;99.90;;;;;;5048511;28;20037;-44
2023/07/20 10:26:16;;;;;;;2.97;1.35;;;28.10;99.90;;;;;;5045039;28;20017;-46
2023/07/20 10:28:43;;;;;;;3.42;1.65;;;28.00;99.90;;;;;;5052924;28;20321;-53
2023/07/20 10:31:12;;;;;;;6.35;1.55;;;28.00;99.90;;;;;;5041702;28;20045;-50
2023/07/20 10:33:38;;;;;;;3.55;1.48;;;28.10;99.90;;;;;;5046714;28;20056;-51
2023/07/20 10:36:06;;;;;;;5.80;1.60;;;28.10;99.90;;;;;;5047562;28;20182;-49
2023/07/20 10:38:43;;;;;;;6.63;1.52;;;28.10;99.90;;;;;;5052363;28;20037;-47
2023/07/20 10:41:28;;;;;;;5.93;1.90;;;28.10;99.90;;;;;;5052497;28;20280;-51
2023/07/20 10:44:11;;;;;;;4.93;1.50;;;;;;;;;;5052674;28;20040;-48
2023/07/20 10:46:39;;;;;;;6.68;1.90;;;27.90;99.90;;;;;;5042141;28;20224;-49
2023/07/20 10:49:07;;;;;;;5.57;1.70;;;28.10;99.90;;;;;;5041574;28;20037;-48
2023/07/20 10:51:56;;;;;;;4.55;1.75;;;28.10;99.90;;;;;;5041656;28;20021;-54
2023/07/20 10:54:22;;;;;;;5.57;1.60;;;;;;;;;;5041366;28;20033;-46
2023/07/20 10:56:49;;;;;;;4.68;1.80;;;28.00;99.90;;;;;;5041604;28;20021;-50
2023/07/20 10:59:40;;;;;;;4.65;2.00;;;28.10;99.90;;;;;;5041224;28;20045;-54
2023/07/20 11:02:08;;;;;;;16.50;14.98;;;28.10;99.90;;;;;;5049500;28;20044;-51
2023/07/20 11:04:42;;;;;;;31.65;28.67;;;28.10;99.90;;;;;;5052097;28;20034;-51
2023/07/20 11:07:11;;;;;;;18.63;16.63;;;28.10;99.90;;;;;;5053793;28;20106;-47
2023/07/20 11:09:41;;;;;;;11.98;10.77;;;28.10;99.90;;;;;;5050567;28;20036;-48
2023/07/20 11:12:18;;;;;;;14.25;7.93;;;28.10;99.90;;;;;;5061119;28;20029;-47
2023/07/20 11:14:54;;;;;;;22.38;9.00;;;28.10;99.90;;;;;;5060899;27;20043;-48
2023/07/20 11:17:29;;;;;;;19.95;7.90;;;28.10;99.90;;;;;;5058553;28;20040;-44
2023/07/20 11:19:57;;;;;;;14.50;6.25;;;28.10;99.90;;;;;;5050179;28;20214;-50
2023/07/20 11:22:24;;;;;;;12.95;5.05;;;28.20;99.90;;;;;;5050820;28;20025;-50
2023/07/20 11:24:50;;;;;;;9.65;4.60;;;28.10;99.90;;;;;;5053261;28;20021;-47
2023/07/20 11:27:22;;;;;;;12.13;8.55;;;;;;;;;;5051567;28;20119;-49
2023/07/20 11:29:52;;;;;;;16.00;6.63;;;28.00;99.90;;;;;;5060751;28;20372;-53
2023/07/20 11:32:26;;;;;;;12.02;5.97;;;27.70;99.90;;;;;;5058230;28;20102;-47
2023/07/20 11:35:03;;;;;;;8.20;4.65;;;28.20;99.90;;;;;;5050336;28;20021;-52
2023/07/20 11:37:32;;;;;;;8.80;3.53;;;28.20;99.90;;;;;;5040691;28;20030;-49
2023/07/20 11:39:59;;;;;;;7.70;3.10;;;28.20;99.90;;;;;;5040460;28;20122;-45
2023/07/20 11:42:25;;;;;;;6.13;2.97;;;28.20;99.90;;;;;;5043369;28;20068;-48
2023/07/20 11:44:52;;;;;;;5.47;2.92;;;28.10;99.90;;;;;;5052758;28;20025;-50
2023/07/20 11:47:19;;;;;;;6.20;2.58;;;28.10;99.90;;;;;;5046613;28;20032;-47
2023/07/20 11:49:49;;;;;;;6.65;3.00;;;28.20;99.90;;;;;;5055433;28;20043;-53
2023/07/20 11:52:17;;;;;;;7.28;3.13;;;28.20;99.90;;;;;;5052316;28;20032;-47
2023/07/20 11:54:47;;;;;;;7.13;2.90;;;;;;;;;;5063771;28;20048;-45
2023/07/20 11:57:20;;;;;;;6.72;2.88;;;;;;;;;;5064169;28;20389;-47
2023/07/20 12:00:03;;;;;;;7.47;3.00;;;28.20;99.90;;;;;;5063565;28;20024;-53
2023/07/20 12:02:31;;;;;;;8.40;3.10;;;28.20;99.90;;;;;;5061771;28;20089;-48
2023/07/20 12:04:58;;;;;;;8.93;3.00;;;28.20;99.90;;;;;;5057198;28;20058;-45
2023/07/20 12:07:29;;;;;;;5.80;2.92;;;28.20;99.90;;;;;;5063709;28;20029;-46
2023/07/20 12:10:10;;;;;;;8.02;3.35;;;28.20;99.90;;;;;;5063893;28;20365;-45
2023/07/20 12:12:44;;;;;;;7.93;3.80;;;28.20;99.90;;;;;;5063705;28;20040;-54
2023/07/20 12:15:17;;;;;;;4.80;2.75;;;28.10;99.90;;;;;;5063815;28;20029;-46
2023/07/20 12:17:50;;;;;;;5.93;2.55;;;28.10;99.90;;;;;;5063195;28;20309;-45
2023/07/20 12:20:37;;;;;;;7.57;2.55;;;28.10;99.90;;;;;;5063435;28;20029;-44
2023/07/20 12:23:05;;;;;;;6.47;2.30;;;28.10;99.90;;;;;;5063787;28;20060;-49
2023/07/20 12:25:44;;;;;;;7.90;2.60;;;28.10;99.90;;;;;;5063667;28;20032;-45
2023/07/20 12:28:15;;;;;;;6.25;2.70;;;28.10;99.90;;;;;;5047018;28;20052;-49
2023/07/20 12:30:56;;;;;;;6.25;2.70;;;28.10;99.90;;;;;;5064071;28;20091;-50
2023/07/20 12:33:22;;;;;;;6.85;2.63;;;28.20;99.90;;;;;;5064013;28;20028;-47
2023/07/20 12:35:55;;;;;;;4.97;2.40;;;28.20;99.90;;;;;;5063647;28;20051;-45
2023/07/20 12:38:27;;;;;;;7.68;2.58;;;28.10;99.90;;;;;;5063362;28;20029;-44
2023/07/20 12:40:56;;;;;;;6.97;2.20;;;28.20;99.90;;;;;;5063193;28;20025;-55
2023/07/20 12:43:23;;;;;;;5.38;2.47;;;28.20;99.90;;;;;;5063570;28;20162;-42
2023/07/20 12:45:49;;;;;;;6.25;2.25;;;28.20;99.90;;;;;;5063178;28;20017;-43
2023/07/20 12:48:24;;;;;;;4.03;2.45;;;28.10;99.90;;;;;;5063054;28;20312;-44
2023/07/20 12:50:51;;;;;;;7.85;2.40;;;28.10;99.90;;;;;;5064564;28;20035;-48
2023/07/20 12:53:37;;;;;;;7.90;2.25;;;28.20;99.90;;;;;;5064718;28;20194;-47
2023/07/20 12:56:04;;;;;;;3.25;1.70;;;28.20;99.90;;;;;;5063916;28;20029;-51
2023/07/20 12:58:31;;;;;;;32.95;2.90;;;28.20;99.90;;;;;;5062462;28;20037;-45
2023/07/20 13:00:58;;;;;;;163.90;12.98;;;28.20;99.90;;;;;;5063123;28;20032;-48
2023/07/20 13:03:24;;;;;;;367.13;26.67;;;28.20;99.90;;;;;;5062936;28;20021;-44
2023/07/20 13:05:51;;;;;;;520.80;37.10;;;28.20;99.90;;;;;;5063585;28;20025;-45
2023/07/20 13:08:19;;;;;;;372.55;25.80;;;28.30;99.90;;;;;;5063180;28;20061;-43
2023/07/20 13:10:46;;;;;;;482.90;36.75;;;28.30;99.90;;;;;;5063678;28;20079;-47
2023/07/20 13:13:18;;;;;;;382.60;28.88;;;28.20;99.90;;;;;;5062795;28;20051;-51
2023/07/20 13:15:46;;;;;;;270.50;20.65;;;28.20;99.90;;;;;;5124731;28;20043;-48
2023/07/20 13:18:13;;;;;;;158.48;13.82;;;28.10;99.90;;;;;;5125096;28;20041;-42
2023/07/20 13:20:40;;;;;;;248.88;19.95;;;28.20;99.90;;;;;;5107999;28;20148;-50
2023/07/20 13:23:07;;;;;;;221.23;18.75;;;28.20;99.90;;;;;;5124586;28;20042;-46
2023/07/20 13:25:35;;;;;;;193.07;16.02;;;28.30;99.90;;;;;;5124874;28;20038;-41
2023/07/20 13:28:02;;;;;;;138.75;12.25;;;28.30;99.90;;;;;;5124814;28;20043;-52
2023/07/20 13:30:28;;;;;;;95.72;8.65;;;28.40;99.90;;;;;;5107308;28;20141;-48
2023/07/20 13:33:09;;;;;;;65.50;5.85;;;28.40;99.90;;;;;;5124666;28;20055;-47
2023/07/20 13:35:35;;;;;;;57.53;5.93;;;28.40;99.90;;;;;;5124320;28;20039;-47
2023/07/20 13:38:02;;;;;;;53.90;5.82;;;28.40;99.90;;;;;;5124355;28;20055;-51
2023/07/20 13:40:30;;;;;;;49.97;5.75;;;28.40;99.90;;;;;;5124515;28;20050;-46
2023/07/20 13:42:56;;;;;;;30.55;3.67;;;28.50;99.90;;;;;;5124300;28;20027;-48
2023/07/20 13:45:23;;;;;;;31.60;4.10;;;28.50;99.90;;;;;;5124480;28;20042;-51
2023/07/20 13:47:50;;;;;;;18.33;3.20;;;28.60;99.90;;;;;;5064373;28;20233;-55
2023/07/20 13:50:16;;;;;;;21.98;3.00;;;28.60;99.90;;;;;;5062658;28;20017;-47
2023/07/20 13:52:43;;;;;;;11.55;2.67;;;28.60;99.90;;;;;;5062107;28;20069;-43
2023/07/20 13:55:10;;;;;;;16.02;2.80;;;28.70;99.90;;;;;;5062525;28;20209;-50
2023/07/20 13:57:36;;;;;;;10.45;2.60;;;28.70;99.90;;;;;;5061765;28;20028;-53
2023/07/20 14:00:08;;;;;;;13.05;2.67;;;28.70;99.90;;;;;;5062073;28;20027;-59
2023/07/20 14:02:34;;;;;;;10.60;2.63;;;28.70;99.90;;;;;;5061906;28;20074;-45
2023/07/20 14:05:02;;;;;;;9.20;2.17;;;28.80;99.90;;;;;;5062180;28;20254;-45
2023/07/20 14:07:28;;;;;;;6.20;2.10;;;28.90;99.90;;;;;;5061649;28;20025;-43
2023/07/20 14:09:55;;;;;;;7.65;2.85;;;28.90;99.90;;;;;;5061744;28;20027;-49
2023/07/20 14:12:21;;;;;;;5.07;2.10;;;28.80;99.90;;;;;;5061576;28;20077;-47
2023/07/20 14:14:48;;;;;;;5.15;2.30;;;28.80;99.90;;;;;;5043850;28;20145;-54
2023/07/20 14:17:14;;;;;;;8.75;2.75;;;28.90;99.90;;;;;;5061641;28;20045;-44
2023/07/20 14:19:43;;;;;;;6.95;2.20;;;;;;;;;;5062098;28;20025;-50
2023/07/20 14:22:10;;;;;;;7.55;2.28;;;;;;;;;;5061705;28;20059;-43
2023/07/20 14:24:37;;;;;;;3.83;2.03;;;;;;;;;;5061837;28;20033;-44
2023/07/20 14:27:03;;;;;;;5.20;2.08;;;;;;;;;;5060965;28;20017;-47
2023/07/20 14:29:31;;;;;;;9.90;2.00;;;;;;;;;;5061822;28;20052;-43
2023/07/20 14:31:58;;;;;;;4.72;2.15;;;;;;;;;;5061463;28;20056;-44
2023/07/20 14:34:25;;;;;;;4.38;1.85;;;;;;;;;;5061565;28;20096;-43